Time;durP1;ratioP1;P1;durP2;ratioP2;P2;SDS_P1;SDS_P2;PMS_P1;PMS_P2;Temp;Humidity;BMP_temperature;BMP_pressure;BME280_temperature;BME280_humidity;BME280_pressure;Samples;Min_cycle;Max_cycle;Signal;HPM_P1;HPM_P2
2022/05/31 00:01:26;;;;;;;3.45;1.42;;;21.00;64.30;;;;;;5085747;28;19919;-46
2022/05/31 00:03:52;;;;;;;2.67;1.42;;;21.00;65.00;;;;;;5078922;28;20073;-53
2022/05/31 00:06:18;;;;;;;3.50;1.65;;;21.00;64.90;;;;;;5088940;28;20043;-55
2022/05/31 00:08:44;;;;;;;2.28;1.30;;;21.00;65.40;;;;;;5073708;28;20044;-52
2022/05/31 00:11:11;;;;;;;2.92;1.50;;;21.00;66.20;;;;;;5067066;28;20028;-45
2022/05/31 00:13:37;;;;;;;4.93;1.33;;;21.00;64.60;;;;;;5087876;28;20028;-42
2022/05/31 00:16:03;;;;;;;3.55;1.33;;;21.00;65.30;;;;;;5095359;28;20421;-43
2022/05/31 00:18:29;;;;;;;2.30;1.40;;;21.00;65.70;;;;;;5081930;28;20020;-43
2022/05/31 00:20:55;;;;;;;4.85;1.55;;;21.00;64.50;;;;;;5073396;28;20132;-43
2022/05/31 00:23:21;;;;;;;6.50;2.20;;;21.00;65.80;;;;;;5082436;28;20036;-42
2022/05/31 00:25:47;;;;;;;6.18;2.20;;;21.00;65.60;;;;;;5081386;28;20476;-44
2022/05/31 00:28:14;;;;;;;6.88;1.83;;;21.00;65.70;;;;;;5066274;28;20048;-42
2022/05/31 00:30:40;;;;;;;4.70;2.00;;;21.00;65.40;;;;;;5067318;28;20564;-41
2022/05/31 00:33:07;;;;;;;4.32;2.25;;;21.00;65.50;;;;;;5099763;28;20066;-47
2022/05/31 00:35:36;;;;;;;3.80;2.30;;;21.00;65.40;;;;;;5060481;28;20032;-43
2022/05/31 00:38:02;;;;;;;8.45;2.47;;;21.00;65.40;;;;;;5054520;28;20056;-43
2022/05/31 00:40:29;;;;;;;3.28;1.35;;;21.00;65.30;;;;;;5052238;28;20481;-44
2022/05/31 00:42:57;;;;;;;4.38;2.38;;;21.00;65.20;;;;;;5081257;28;20046;-42
2022/05/31 00:45:31;;;;;;;;;;;21.00;65.00;;;;;;5053217;28;20240;-41
2022/05/31 00:47:57;;;;;;;4.95;2.55;;;21.00;64.80;;;;;;5062253;28;19995;-43
2022/05/31 00:50:32;;;;;;;4.93;2.38;;;20.90;65.60;;;;;;5098098;28;20032;-42
2022/05/31 00:53:01;;;;;;;5.00;2.58;;;20.90;65.50;;;;;;5066422;28;20476;-44
2022/05/31 00:55:35;;;;;;;6.70;3.08;;;21.00;64.70;;;;;;5066402;28;20036;-44
2022/05/31 00:58:24;;;;;;;3.90;2.35;;;20.90;64.60;;;;;;5068054;28;20804;-43
2022/05/31 01:00:50;;;;;;;3.70;2.53;;;20.90;64.40;;;;;;5057880;28;20047;-42
2022/05/31 01:03:18;;;;;;;7.00;2.55;;;20.90;64.30;;;;;;5057467;28;20020;-43
2022/05/31 01:05:44;;;;;;;3.80;1.92;;;20.90;64.60;;;;;;5054169;28;20020;-46
2022/05/31 01:08:10;;;;;;;4.30;2.10;;;20.90;64.50;;;;;;5083734;28;20024;-41
2022/05/31 01:10:37;;;;;;;3.67;1.75;;;20.90;64.20;;;;;;5079567;28;20029;-45
2022/05/31 01:13:03;;;;;;;2.17;1.10;;;20.90;64.10;;;;;;5062732;28;20031;-57
2022/05/31 01:15:29;;;;;;;3.90;1.65;;;20.90;63.10;;;;;;5081438;28;20036;-49
2022/05/31 01:17:55;;;;;;;2.35;1.55;;;20.90;61.80;;;;;;5071085;28;20032;-52
2022/05/31 01:20:22;;;;;;;2.92;1.17;;;20.90;60.80;;;;;;5068389;28;20113;-43
2022/05/31 01:22:55;;;;;;;1.57;1.20;;;20.90;61.20;;;;;;5071947;28;20036;-42
2022/05/31 01:25:40;;;;;;;1.83;1.30;;;20.90;62.50;;;;;;5058647;28;20297;-47
2022/05/31 01:28:32;;;;;;;2.60;1.48;;;20.90;62.60;;;;;;5063667;28;20417;-42
2022/05/31 01:31:08;;;;;;;2.22;1.33;;;20.90;62.60;;;;;;5037027;28;20029;-41
2022/05/31 01:33:42;;;;;;;2.30;1.30;;;20.80;62.60;;;;;;5077120;28;20029;-44
2022/05/31 01:36:12;;;;;;;2.67;1.48;;;20.80;62.70;;;;;;5082390;28;20721;-44
2022/05/31 01:39:08;;;;;;;3.88;1.23;;;20.80;62.80;;;;;;5060970;28;20048;-46
2022/05/31 01:41:51;;;;;;;1.88;1.38;;;20.80;62.80;;;;;;4980255;28;20063;-45
2022/05/31 01:44:18;;;;;;;1.77;1.30;;;20.80;62.90;;;;;;4964046;28;20054;-46
2022/05/31 01:46:44;;;;;;;1.55;0.90;;;20.80;63.00;;;;;;4980304;28;20031;-43
2022/05/31 01:49:12;;;;;;;;;;;20.80;63.00;;;;;;4982231;28;20031;-46
2022/05/31 01:51:40;;;;;;;2.15;1.25;;;20.80;63.00;;;;;;4978031;28;20420;-45
2022/05/31 01:54:07;;;;;;;2.38;1.17;;;20.80;63.10;;;;;;4962982;28;20152;-43
2022/05/31 01:56:33;;;;;;;1.65;1.10;;;20.80;63.30;;;;;;4956837;28;20086;-45
2022/05/31 01:59:00;;;;;;;1.88;1.25;;;20.80;63.40;;;;;;4966095;28;20210;-45
2022/05/31 02:01:26;;;;;;;1.70;1.35;;;20.80;63.40;;;;;;4978036;28;20047;-46
2022/05/31 02:03:53;;;;;;;1.38;1.27;;;20.80;63.40;;;;;;4982370;28;20106;-44
2022/05/31 02:06:39;;;;;;;2.38;1.20;;;20.90;64.20;;;;;;4977627;28;20045;-45
2022/05/31 02:09:07;;;;;;;1.10;1.00;;;20.90;63.50;;;;;;4980136;28;20089;-45
2022/05/31 02:11:34;;;;;;;1.10;1.00;;;20.90;63.60;;;;;;4975768;28;20070;-44
2022/05/31 02:14:01;;;;;;;2.53;1.10;;;20.90;63.70;;;;;;4979027;28;20030;-44
2022/05/31 02:16:27;;;;;;;1.48;1.02;;;20.90;63.80;;;;;;4978393;28;20067;-44
2022/05/31 02:21:38;;;;;;;1.45;1.05;;;20.90;63.80;;;;;;5076570;28;20603;-43
2022/05/31 02:24:13;;;;;;;1.67;1.10;;;20.90;63.80;;;;;;5084165;28;20048;-43
2022/05/31 02:26:42;;;;;;;1.52;1.20;;;20.90;63.90;;;;;;5066549;28;20039;-45
2022/05/31 02:29:09;;;;;;;2.78;1.30;;;20.90;64.00;;;;;;5071735;28;20034;-43
2022/05/31 02:31:35;;;;;;;1.35;0.88;;;21.00;64.10;;;;;;5067651;28;20036;-43
2022/05/31 02:34:02;;;;;;;1.70;1.07;;;21.00;64.10;;;;;;5070366;28;20040;-44
2022/05/31 02:36:28;;;;;;;1.45;1.15;;;21.00;64.10;;;;;;5063061;28;20079;-43
2022/05/31 02:38:55;;;;;;;1.90;1.10;;;21.00;64.10;;;;;;5077825;28;20021;-43
2022/05/31 02:41:21;;;;;;;;;;;21.00;64.20;;;;;;5077321;28;20041;-44
2022/05/31 02:43:47;;;;;;;1.40;0.90;;;21.00;64.10;;;;;;5071076;28;19912;-46
2022/05/31 02:46:14;;;;;;;2.42;1.50;;;21.00;64.20;;;;;;5074480;28;20035;-43
2022/05/31 02:48:40;;;;;;;1.45;1.30;;;21.00;64.20;;;;;;5074560;28;20466;-43
2022/05/31 02:51:06;;;;;;;1.98;1.00;;;21.10;64.40;;;;;;5072008;28;20036;-44
2022/05/31 02:53:32;;;;;;;1.38;1.10;;;21.10;64.40;;;;;;5071459;28;20087;-43
2022/05/31 02:55:58;;;;;;;1.20;1.10;;;21.10;64.50;;;;;;5071400;28;20055;-44
2022/05/31 02:58:25;;;;;;;1.58;1.13;;;21.10;64.50;;;;;;5065853;28;20108;-43
2022/05/31 03:00:51;;;;;;;1.27;1.00;;;21.10;64.50;;;;;;5071933;28;20024;-43
2022/05/31 03:03:18;;;;;;;1.55;1.10;;;21.20;64.40;;;;;;5069488;28;20179;-42
2022/05/31 03:05:44;;;;;;;1.20;1.10;;;21.20;64.50;;;;;;5072603;28;20021;-44
2022/05/31 03:08:11;;;;;;;1.15;1.05;;;21.20;64.40;;;;;;5079565;28;20421;-43
2022/05/31 03:10:39;;;;;;;1.40;1.30;;;21.20;64.40;;;;;;5074946;28;20033;-43
2022/05/31 03:13:05;;;;;;;1.52;1.20;;;21.20;64.30;;;;;;5081856;28;20106;-44
2022/05/31 03:15:32;;;;;;;2.08;1.17;;;21.20;64.30;;;;;;5081701;28;20095;-46
2022/05/31 03:18:15;;;;;;;1.20;1.10;;;21.20;64.30;;;;;;5086116;28;20032;-43
2022/05/31 03:20:47;;;;;;;1.38;1.10;;;21.30;64.40;;;;;;5095864;28;20047;-43
2022/05/31 03:23:43;;;;;;;1.45;1.30;;;21.30;64.40;;;;;;5054342;28;20070;-42
2022/05/31 03:26:10;;;;;;;1.45;1.00;;;21.30;64.30;;;;;;5076324;28;20068;-44
2022/05/31 03:28:36;;;;;;;1.10;1.00;;;21.30;64.30;;;;;;5075074;28;20028;-47
2022/05/31 03:31:03;;;;;;;1.38;1.15;;;21.30;64.20;;;;;;5072754;28;20485;-46
2022/05/31 03:33:29;;;;;;;2.35;1.20;;;21.30;64.20;;;;;;5074343;28;20056;-44
2022/05/31 03:35:55;;;;;;;1.90;1.15;;;21.30;64.20;;;;;;5059845;28;20039;-46
2022/05/31 03:38:21;;;;;;;1.42;1.00;;;21.40;64.20;;;;;;5073158;28;20041;-45
2022/05/31 03:40:57;;;;;;;1.67;1.10;;;21.40;64.50;;;;;;5073573;28;20039;-43
2022/05/31 03:43:30;;;;;;;1.45;1.20;;;21.40;64.60;;;;;;5060035;28;20025;-45
2022/05/31 03:45:56;;;;;;;1.42;1.30;;;21.40;65.00;;;;;;5074332;28;20036;-45
2022/05/31 03:48:22;;;;;;;1.83;1.10;;;21.40;64.90;;;;;;5076898;28;20082;-45
2022/05/31 03:51:02;;;;;;;3.70;1.30;;;21.40;64.80;;;;;;5078592;28;20037;-45
2022/05/31 03:53:28;;;;;;;1.30;1.15;;;21.40;64.70;;;;;;5074379;28;20032;-44
2022/05/31 03:55:54;;;;;;;2.20;1.33;;;21.50;64.70;;;;;;5074086;28;20039;-43
2022/05/31 03:58:21;;;;;;;2.10;1.23;;;21.50;64.60;;;;;;5074365;28;20024;-42
2022/05/31 04:00:47;;;;;;;4.03;1.50;;;21.50;64.50;;;;;;5076833;28;20032;-44
2022/05/31 04:03:13;;;;;;;1.90;1.33;;;21.50;64.40;;;;;;5075609;28;20032;-45
2022/05/31 04:05:39;;;;;;;1.20;1.10;;;21.50;64.30;;;;;;5073229;28;20032;-45
2022/05/31 04:08:08;;;;;;;1.38;1.13;;;21.50;64.20;;;;;;5076886;28;20289;-48
2022/05/31 04:10:35;;;;;;;1.48;1.20;;;21.50;64.20;;;;;;5080542;28;20025;-46
2022/05/31 04:13:01;;;;;;;3.10;2.05;;;21.50;64.10;;;;;;5076375;28;20027;-47
2022/05/31 04:15:27;;;;;;;1.50;1.02;;;21.50;64.00;;;;;;5081309;28;20035;-44
2022/05/31 04:17:54;;;;;;;1.50;1.27;;;21.50;63.90;;;;;;5081320;28;20071;-45
2022/05/31 04:20:20;;;;;;;1.55;1.30;;;21.50;63.90;;;;;;5083135;28;20424;-45
2022/05/31 04:22:46;;;;;;;2.05;1.35;;;21.50;63.80;;;;;;5083869;28;20067;-47
2022/05/31 04:25:12;;;;;;;1.83;1.27;;;21.50;63.70;;;;;;5076942;28;20086;-46
2022/05/31 04:27:39;;;;;;;1.60;1.33;;;21.50;63.70;;;;;;5069979;28;20021;-45
2022/05/31 04:30:05;;;;;;;1.35;1.10;;;21.60;63.70;;;;;;5076355;28;20035;-44
2022/05/31 04:32:31;;;;;;;2.50;1.38;;;21.50;63.60;;;;;;5079550;28;20035;-45
2022/05/31 04:34:58;;;;;;;4.35;1.30;;;21.50;63.60;;;;;;5074511;28;20043;-44
2022/05/31 04:37:24;;;;;;;2.90;1.20;;;21.60;63.60;;;;;;5078555;28;20029;-46
2022/05/31 04:39:50;;;;;;;1.58;1.27;;;21.60;63.60;;;;;;5078839;28;21585;-46
2022/05/31 04:42:16;;;;;;;1.60;1.27;;;21.60;63.50;;;;;;5075807;28;20082;-46
2022/05/31 04:44:43;;;;;;;2.08;1.30;;;21.60;63.50;;;;;;5074171;28;20058;-48
2022/05/31 04:47:09;;;;;;;1.83;1.35;;;21.60;63.40;;;;;;5073259;28;20092;-52
2022/05/31 04:49:35;;;;;;;2.13;1.30;;;21.60;63.40;;;;;;5070507;28;20096;-45
2022/05/31 04:52:01;;;;;;;1.52;1.10;;;21.60;63.40;;;;;;5078950;28;20040;-45
2022/05/31 04:54:30;;;;;;;1.02;1.02;;;21.60;63.40;;;;;;5077992;28;20027;-46
2022/05/31 04:56:59;;;;;;;1.73;1.30;;;21.60;63.30;;;;;;5075589;28;20028;-44
2022/05/31 04:59:26;;;;;;;1.55;1.27;;;21.60;63.30;;;;;;5073745;28;20025;-45
2022/05/31 05:01:52;;;;;;;2.25;1.33;;;21.60;63.30;;;;;;5073316;28;20036;-45
2022/05/31 05:04:18;;;;;;;1.63;1.40;;;21.70;63.40;;;;;;5070452;28;20059;-45
2022/05/31 05:06:44;;;;;;;1.30;1.17;;;21.70;63.30;;;;;;5078016;28;20036;-45
2022/05/31 05:09:10;;;;;;;2.58;1.30;;;21.70;63.30;;;;;;5069850;28;20094;-46
2022/05/31 05:11:36;;;;;;;2.45;1.20;;;21.70;63.30;;;;;;5071693;28;20039;-43
2022/05/31 05:14:02;;;;;;;1.80;1.15;;;21.70;63.20;;;;;;5075512;28;20025;-45
2022/05/31 05:16:29;;;;;;;1.30;1.20;;;21.70;63.20;;;;;;5072225;28;20078;-47
2022/05/31 05:18:55;;;;;;;1.73;1.25;;;21.70;63.20;;;;;;5055769;28;20058;-44
2022/05/31 05:21:22;;;;;;;2.88;1.20;;;21.70;63.20;;;;;;5054716;28;20048;-45
2022/05/31 05:23:48;;;;;;;1.40;1.30;;;21.70;63.20;;;;;;5082409;28;20024;-45
2022/05/31 05:26:15;;;;;;;1.05;1.00;;;21.70;63.90;;;;;;5070410;28;20076;-49
2022/05/31 05:31:33;;;;;;;1.40;1.20;;;21.70;63.20;;;;;;5070632;28;20043;-44
2022/05/31 05:34:00;;;;;;;1.60;1.05;;;21.70;63.20;;;;;;5073445;28;20032;-45
2022/05/31 05:36:26;;;;;;;1.55;1.27;;;21.70;63.10;;;;;;5073449;28;20039;-46
2022/05/31 05:38:52;;;;;;;2.30;1.47;;;21.70;63.10;;;;;;5071070;28;20143;-45
2022/05/31 05:41:20;;;;;;;1.30;1.17;;;21.70;63.10;;;;;;5073139;28;20124;-45
2022/05/31 05:43:46;;;;;;;;;;;21.70;63.80;;;;;;5066485;28;20039;-46
2022/05/31 05:46:13;;;;;;;1.30;1.20;;;21.70;63.10;;;;;;5068231;28;19913;-45
2022/05/31 05:48:40;;;;;;;1.95;1.30;;;21.70;63.10;;;;;;5055139;28;20045;-46
2022/05/31 05:51:23;;;;;;;2.17;1.60;;;21.70;63.10;;;;;;5072107;28;20329;-46
2022/05/31 05:53:50;;;;;;;1.63;1.30;;;21.70;63.00;;;;;;5059393;28;20028;-46
2022/05/31 05:56:16;;;;;;;2.40;1.23;;;21.70;63.00;;;;;;5052287;28;20032;-48
2022/05/31 05:58:42;;;;;;;1.85;1.38;;;21.70;63.00;;;;;;5077035;28;20071;-46
2022/05/31 06:01:34;;;;;;;2.35;1.50;;;21.70;63.00;;;;;;5068654;28;20078;-46
2022/05/31 06:04:29;;;;;;;1.50;1.30;;;21.70;63.00;;;;;;5073136;28;20048;-45
2022/05/31 06:07:02;;;;;;;1.50;1.40;;;21.70;63.00;;;;;;5075385;28;20028;-46
2022/05/31 06:09:28;;;;;;;1.50;1.40;;;21.70;63.00;;;;;;5072167;28;20024;-50
2022/05/31 06:11:58;;;;;;;3.38;1.42;;;21.70;63.00;;;;;;5070160;28;20032;-47
2022/05/31 06:14:27;;;;;;;2.30;1.50;;;21.70;63.00;;;;;;5074733;28;20033;-45
2022/05/31 06:16:56;;;;;;;1.60;1.45;;;21.70;63.00;;;;;;5051387;28;20095;-46
2022/05/31 06:19:24;;;;;;;2.28;1.35;;;21.70;63.00;;;;;;5067714;28;20040;-46
2022/05/31 06:21:51;;;;;;;2.55;1.75;;;21.70;63.00;;;;;;5050956;28;20040;-45
2022/05/31 06:24:17;;;;;;;3.05;1.48;;;21.70;62.90;;;;;;5038377;28;20025;-45
2022/05/31 06:26:44;;;;;;;2.78;1.42;;;21.70;62.90;;;;;;5076256;28;20033;-46
2022/05/31 06:29:10;;;;;;;2.45;1.70;;;21.70;62.90;;;;;;5071689;28;20040;-45
2022/05/31 06:31:36;;;;;;;3.47;1.67;;;21.70;62.90;;;;;;5070008;28;20032;-44
2022/05/31 06:34:02;;;;;;;1.83;1.30;;;21.70;62.90;;;;;;5073746;28;20378;-45
2022/05/31 06:36:28;;;;;;;2.28;1.58;;;21.70;62.90;;;;;;5080968;28;20094;-46
2022/05/31 06:38:54;;;;;;;1.70;1.58;;;21.70;62.90;;;;;;5073718;28;20115;-46
2022/05/31 06:41:20;;;;;;;1.63;1.45;;;21.70;62.90;;;;;;5075414;28;20048;-47
2022/05/31 06:43:46;;;;;;;2.40;1.48;;;21.70;62.90;;;;;;5076638;28;20059;-47
2022/05/31 06:46:13;;;;;;;2.97;1.35;;;21.70;63.00;;;;;;5075862;28;20028;-47
2022/05/31 06:48:39;;;;;;;1.55;1.45;;;21.70;63.00;;;;;;5077624;28;20024;-46
2022/05/31 06:51:07;;;;;;;2.28;1.40;;;21.70;62.90;;;;;;5081919;28;20028;-46
2022/05/31 06:58:57;;;;;;;2.40;1.65;;;21.80;63.00;;;;;;5075285;28;20394;-46
2022/05/31 07:01:30;;;;;;;1.88;1.73;;;21.70;62.90;;;;;;5070959;28;20049;-45
2022/05/31 07:04:00;;;;;;;2.00;1.70;;;21.70;62.90;;;;;;5088015;28;20059;-45
2022/05/31 07:06:27;;;;;;;3.25;1.85;;;21.70;62.90;;;;;;5088470;28;20056;-45
2022/05/31 07:08:53;;;;;;;1.98;1.58;;;21.70;62.90;;;;;;5083427;28;20020;-46
2022/05/31 07:11:20;;;;;;;1.60;1.38;;;21.70;62.90;;;;;;5090663;28;20163;-45
2022/05/31 07:13:47;;;;;;;2.20;1.55;;;21.70;63.00;;;;;;5062110;28;20017;-46
2022/05/31 07:16:13;;;;;;;1.50;1.40;;;21.70;63.00;;;;;;5073180;28;20040;-45
2022/05/31 07:18:39;;;;;;;2.05;1.85;;;21.70;63.00;;;;;;5086037;28;20021;-46
2022/05/31 07:21:05;;;;;;;1.88;1.48;;;21.70;63.00;;;;;;5085681;28;20519;-45
2022/05/31 07:23:31;;;;;;;1.75;1.42;;;21.70;63.00;;;;;;5100939;28;20054;-44
2022/05/31 07:25:59;;;;;;;1.95;1.60;;;21.70;63.00;;;;;;5087623;28;20527;-44
2022/05/31 07:28:28;;;;;;;1.83;1.38;;;21.70;63.10;;;;;;5089943;28;20031;-44
2022/05/31 07:30:55;;;;;;;1.50;1.40;;;21.70;63.10;;;;;;5064789;28;20170;-46
2022/05/31 07:33:21;;;;;;;2.47;1.30;;;21.70;63.20;;;;;;5078524;28;20083;-46
2022/05/31 07:35:49;;;;;;;2.47;1.93;;;21.70;63.10;;;;;;5091282;28;20032;-47
2022/05/31 07:38:16;;;;;;;2.53;1.70;;;21.70;63.20;;;;;;5084307;28;20381;-45
2022/05/31 07:40:44;;;;;;;1.90;1.70;;;21.70;63.20;;;;;;5078837;28;20464;-46
2022/05/31 07:43:10;;;;;;;1.88;1.50;;;21.70;63.10;;;;;;5046827;28;20115;-47
2022/05/31 07:45:37;;;;;;;2.97;1.83;;;21.70;63.20;;;;;;5085491;28;20057;-46
2022/05/31 07:48:04;;;;;;;3.07;1.77;;;21.70;64.00;;;;;;5079049;28;20032;-44
2022/05/31 07:50:30;;;;;;;1.95;1.40;;;21.70;63.20;;;;;;5061288;28;20779;-45
2022/05/31 07:52:59;;;;;;;2.13;1.70;;;21.70;63.30;;;;;;5078671;28;20119;-47
2022/05/31 07:55:25;;;;;;;2.00;1.60;;;21.70;63.30;;;;;;5087356;28;20036;-45
2022/05/31 08:00:36;;;;;;;1.70;1.60;;;21.70;63.30;;;;;;5072288;28;20048;-45
2022/05/31 08:03:02;;;;;;;2.05;1.73;;;21.70;63.30;;;;;;5079202;28;20037;-43
2022/05/31 08:05:30;;;;;;;2.45;1.70;;;21.70;63.40;;;;;;5075681;28;20062;-49
2022/05/31 08:07:56;;;;;;;3.30;1.80;;;21.70;63.50;;;;;;5073674;28;20039;-44
2022/05/31 08:10:22;;;;;;;2.88;1.80;;;21.70;63.40;;;;;;5073437;28;20081;-44
2022/05/31 08:12:48;;;;;;;2.13;1.63;;;21.70;63.50;;;;;;5071078;28;20033;-51
2022/05/31 08:15:16;;;;;;;2.10;1.83;;;21.70;63.50;;;;;;5074176;28;20031;-57
2022/05/31 08:17:43;;;;;;;;;;;21.70;63.60;;;;;;5071543;28;20052;-59
2022/05/31 08:20:09;;;;;;;2.53;1.70;;;21.70;63.50;;;;;;5092271;28;19924;-55
2022/05/31 08:22:35;;;;;;;3.13;1.83;;;21.70;63.80;;;;;;5071656;28;20114;-45
2022/05/31 08:25:02;;;;;;;1.83;1.67;;;21.70;64.60;;;;;;5071401;28;20037;-54
2022/05/31 08:27:28;;;;;;;7.18;1.85;;;21.70;63.80;;;;;;5078992;28;20120;-50
2022/05/31 08:29:54;;;;;;;3.63;1.60;;;21.70;63.80;;;;;;5075013;28;20020;-48
2022/05/31 08:32:20;;;;;;;3.15;1.80;;;21.70;64.00;;;;;;5069154;28;20159;-46
2022/05/31 08:34:48;;;;;;;4.78;2.03;;;21.70;63.90;;;;;;5046598;28;20047;-45
2022/05/31 08:37:16;;;;;;;1.92;1.70;;;21.70;63.80;;;;;;5069623;28;20029;-47
2022/05/31 08:39:42;;;;;;;3.08;1.95;;;21.70;64.00;;;;;;5079452;28;20025;-44
2022/05/31 08:42:10;;;;;;;1.90;1.70;;;21.70;63.90;;;;;;5063888;28;20401;-47
2022/05/31 08:44:46;;;;;;;2.38;1.73;;;21.70;64.00;;;;;;5063015;28;20048;-44
2022/05/31 08:47:36;;;;;;;2.85;1.80;;;21.70;64.10;;;;;;5080619;28;20080;-44
2022/05/31 08:53:27;;;;;;;1.90;1.70;;;21.70;64.10;;;;;;5050931;28;20675;-48
2022/05/31 08:59:11;;;;;;;2.35;1.80;;;21.70;63.80;;;;;;5053821;28;20027;-48
2022/05/31 09:01:41;;;;;;;3.03;2.20;;;21.70;64.10;;;;;;5054421;28;20760;-47
2022/05/31 09:04:45;;;;;;;3.47;1.67;;;21.70;64.20;;;;;;5045133;28;20028;-47
2022/05/31 09:07:25;;;;;;;2.10;1.90;;;21.70;64.20;;;;;;5062784;28;20017;-46
2022/05/31 09:10:17;;;;;;;2.33;1.55;;;21.70;64.20;;;;;;5045887;28;20056;-47
2022/05/31 09:12:49;;;;;;;3.28;1.50;;;21.70;64.30;;;;;;5063060;28;20029;-44
2022/05/31 09:15:21;;;;;;;2.05;1.70;;;21.70;63.90;;;;;;5065819;28;20029;-46
2022/05/31 09:18:05;;;;;;;3.22;1.65;;;21.70;63.90;;;;;;5062924;28;20033;-48
2022/05/31 09:20:33;;;;;;;3.13;1.58;;;21.70;64.20;;;;;;5066078;28;20056;-46
2022/05/31 09:22:59;;;;;;;4.03;1.92;;;21.70;64.30;;;;;;5092114;28;20036;-46
2022/05/31 09:25:26;;;;;;;2.67;2.08;;;21.70;64.30;;;;;;5086725;28;20676;-44
2022/05/31 09:27:53;;;;;;;2.35;1.75;;;21.70;63.90;;;;;;5057388;28;20051;-47
2022/05/31 09:30:40;;;;;;;1.90;1.50;;;21.70;64.10;;;;;;5075475;28;20033;-46
2022/05/31 09:33:46;;;;;;;1.83;1.60;;;21.70;64.30;;;;;;5072917;28;20044;-44
2022/05/31 09:36:39;;;;;;;1.60;1.50;;;21.70;64.20;;;;;;5038659;28;20071;-43
2022/05/31 09:39:11;;;;;;;3.60;1.48;;;21.70;64.20;;;;;;5051744;28;20029;-46
2022/05/31 09:41:43;;;;;;;1.88;1.42;;;21.70;64.00;;;;;;5067578;28;20106;-44
2022/05/31 09:44:32;;;;;;;1.92;1.50;;;21.70;64.00;;;;;;5062939;28;20055;-46
2022/05/31 09:47:10;;;;;;;2.47;1.90;;;21.70;64.10;;;;;;5073247;28;20031;-45
2022/05/31 09:49:47;;;;;;;2.13;1.63;;;21.60;64.20;;;;;;5082032;28;20036;-43
2022/05/31 09:52:52;;;;;;;1.70;1.48;;;21.70;64.10;;;;;;5081196;28;20067;-45
2022/05/31 09:58:27;;;;;;;1.92;1.73;;;21.70;64.00;;;;;;5070615;28;20031;-46
2022/05/31 10:01:06;;;;;;;3.83;1.92;;;21.60;64.00;;;;;;5073818;28;20714;-48
2022/05/31 10:03:46;;;;;;;2.20;1.52;;;21.60;64.10;;;;;;5054664;28;20088;-44
2022/05/31 10:06:22;;;;;;;1.92;1.70;;;21.60;64.20;;;;;;5070347;28;20093;-45
2022/05/31 10:08:51;;;;;;;2.90;1.65;;;21.70;64.20;;;;;;5067551;28;20085;-46
2022/05/31 10:11:37;;;;;;;1.90;1.70;;;21.60;64.10;;;;;;5050731;28;20029;-45
2022/05/31 10:14:04;;;;;;;2.22;1.73;;;21.60;64.20;;;;;;5072296;28;20106;-46
2022/05/31 10:16:32;;;;;;;4.55;1.85;;;21.60;64.20;;;;;;5072220;28;20025;-46
2022/05/31 10:19:03;;;;;;;2.00;1.70;;;21.60;64.20;;;;;;5069567;28;20044;-47
2022/05/31 10:21:42;;;;;;;2.10;1.90;;;21.60;64.10;;;;;;5070841;28;20036;-44
2022/05/31 10:24:17;;;;;;;2.10;1.90;;;21.60;63.90;;;;;;5071311;28;20079;-48
2022/05/31 10:26:43;;;;;;;2.20;1.70;;;21.70;64.10;;;;;;5066837;28;20044;-46
2022/05/31 10:29:24;;;;;;;1.52;1.42;;;21.60;64.10;;;;;;5070761;28;20035;-44
2022/05/31 10:31:50;;;;;;;3.20;1.65;;;21.60;64.10;;;;;;5058366;28;20052;-44
2022/05/31 10:34:36;;;;;;;2.13;1.63;;;21.60;64.30;;;;;;5069388;28;20145;-47
2022/05/31 10:37:05;;;;;;;2.10;1.55;;;21.60;64.30;;;;;;5069038;28;20042;-44
2022/05/31 10:39:35;;;;;;;1.98;1.42;;;21.60;64.30;;;;;;5051281;28;20330;-47
2022/05/31 10:42:02;;;;;;;2.13;1.70;;;21.60;64.40;;;;;;5066348;28;20041;-47
2022/05/31 10:44:31;;;;;;;1.92;1.65;;;21.60;64.30;;;;;;5067307;28;20036;-45
2022/05/31 10:47:08;;;;;;;1.92;1.73;;;21.60;64.20;;;;;;5049542;28;20044;-47
2022/05/31 10:49:34;;;;;;;2.40;1.50;;;21.60;64.30;;;;;;5048336;28;20025;-49
2022/05/31 10:52:03;;;;;;;2.53;1.92;;;21.60;64.20;;;;;;5047447;28;20025;-47
2022/05/31 10:54:54;;;;;;;2.08;1.88;;;21.60;64.50;;;;;;5050481;28;20039;-47
2022/05/31 10:57:32;;;;;;;1.83;1.58;;;21.60;64.30;;;;;;5069319;28;20060;-50
2022/05/31 11:00:29;;;;;;;1.92;1.75;;;21.60;64.40;;;;;;5060842;28;20029;-48
2022/05/31 11:03:05;;;;;;;1.77;1.52;;;21.60;64.30;;;;;;5065517;28;20033;-44
2022/05/31 11:05:56;;;;;;;1.83;1.38;;;21.60;64.40;;;;;;5068683;28;20029;-45
2022/05/31 11:11:30;;;;;;;1.75;1.52;;;21.60;64.40;;;;;;5069193;28;20058;-49
2022/05/31 11:14:14;;;;;;;1.73;1.45;;;21.60;64.40;;;;;;5068658;28;20028;-45
2022/05/31 11:16:52;;;;;;;1.70;1.60;;;21.60;64.40;;;;;;5068404;28;20053;-46
2022/05/31 11:19:36;;;;;;;1.70;1.40;;;21.60;64.50;;;;;;5063771;28;20131;-48
2022/05/31 11:22:19;;;;;;;2.65;1.60;;;21.60;64.50;;;;;;5070994;28;20115;-46
2022/05/31 11:25:12;;;;;;;1.77;1.38;;;21.60;64.40;;;;;;5053711;28;20024;-45
2022/05/31 11:28:10;;;;;;;1.67;1.58;;;21.60;64.60;;;;;;5041747;28;20048;-47
2022/05/31 11:31:18;;;;;;;3.50;1.40;;;21.60;64.20;;;;;;5060635;28;20028;-43
2022/05/31 11:34:02;;;;;;;2.92;1.58;;;21.60;64.20;;;;;;5070386;28;20055;-45
2022/05/31 11:37:06;;;;;;;5.88;2.40;;;21.60;64.20;;;;;;5071857;28;20079;-46
2022/05/31 11:40:14;;;;;;;3.58;1.70;;;21.60;64.40;;;;;;5080581;28;20094;-44
2022/05/31 11:43:07;;;;;;;4.40;1.70;;;21.60;64.50;;;;;;5018034;28;20037;-46
2022/05/31 11:45:57;;;;;;;7.70;1.80;;;21.60;64.20;;;;;;5016762;28;20030;-44
2022/05/31 11:48:43;;;;;;;4.65;1.73;;;21.60;64.10;;;;;;5020444;28;20045;-45
2022/05/31 11:51:31;;;;;;;3.65;1.90;;;21.60;64.10;;;;;;5016330;28;20037;-52
2022/05/31 11:54:34;;;;;;;3.22;1.55;;;21.60;63.90;;;;;;5000593;28;20046;-49
2022/05/31 11:57:24;;;;;;;4.90;1.70;;;21.50;63.20;;;;;;5004045;28;20034;-41
2022/05/31 12:00:16;;;;;;;7.90;1.77;;;21.60;63.40;;;;;;5002143;28;20046;-47
2022/05/31 12:02:45;;;;;;;7.65;1.77;;;21.60;64.30;;;;;;5022288;28;20050;-46
2022/05/31 12:05:16;;;;;;;3.88;1.83;;;21.60;63.70;;;;;;5008550;28;20033;-47
2022/05/31 12:08:04;;;;;;;1.92;1.58;;;21.60;64.00;;;;;;5025391;28;20053;-42
2022/05/31 12:10:35;;;;;;;4.13;1.52;;;21.60;63.90;;;;;;5005827;28;20030;-43
2022/05/31 12:13:07;;;;;;;3.72;1.90;;;21.60;63.50;;;;;;5021638;28;20032;-46
2022/05/31 12:15:35;;;;;;;4.78;1.80;;;21.60;63.60;;;;;;5047370;28;20036;-40
2022/05/31 12:18:14;;;;;;;3.55;2.00;;;21.60;63.60;;;;;;5074939;28;20059;-45
2022/05/31 12:21:09;;;;;;;3.03;1.80;;;21.60;63.30;;;;;;5059508;28;20056;-44
2022/05/31 12:23:40;;;;;;;3.38;1.67;;;21.60;63.10;;;;;;5067778;28;20044;-42
2022/05/31 12:26:21;;;;;;;3.33;1.63;;;21.60;63.10;;;;;;5085375;28;20088;-43
2022/05/31 12:29:23;;;;;;;4.10;1.75;;;21.60;63.10;;;;;;5052221;28;20029;-45
2022/05/31 12:31:50;;;;;;;5.07;1.88;;;21.50;62.90;;;;;;5085756;28;20039;-45
2022/05/31 12:34:19;;;;;;;2.90;1.77;;;21.60;63.30;;;;;;5076519;28;20088;-51
2022/05/31 12:37:06;;;;;;;3.05;1.90;;;21.60;63.30;;;;;;5072678;28;20049;-45
2022/05/31 12:39:33;;;;;;;4.63;1.88;;;21.60;63.40;;;;;;5081348;28;20037;-41
2022/05/31 12:42:14;;;;;;;;;;;21.60;63.40;;;;;;5058282;28;20058;-47
2022/05/31 12:44:41;;;;;;;7.00;1.85;;;21.60;63.50;;;;;;5084491;28;19908;-46
2022/05/31 12:47:23;;;;;;;2.55;1.52;;;21.60;63.60;;;;;;5080276;28;20024;-46
2022/05/31 12:50:08;;;;;;;6.20;2.15;;;21.60;63.80;;;;;;5063997;28;20116;-40
2022/05/31 12:55:27;;;;;;;4.20;1.63;;;21.60;64.00;;;;;;5079942;28;20110;-39
2022/05/31 12:58:32;;;;;;;2.42;1.23;;;21.60;63.50;;;;;;5039442;28;20070;-39
2022/05/31 13:01:14;;;;;;;4.43;1.50;;;21.60;63.30;;;;;;5086884;28;20021;-41
2022/05/31 13:03:40;;;;;;;4.45;1.95;;;21.60;63.20;;;;;;5063829;28;20104;-40
2022/05/31 13:06:07;;;;;;;3.65;1.80;;;21.60;63.20;;;;;;5063898;28;20036;-41
2022/05/31 13:08:52;;;;;;;2.25;1.33;;;21.50;63.20;;;;;;5045749;28;20624;-40
2022/05/31 13:20:13;;;;;;;3.17;1.52;;;21.60;63.40;;;;;;5062092;28;20102;-42
2022/05/31 13:22:43;;;;;;;4.25;1.50;;;21.60;63.20;;;;;;5063515;28;20112;-40
2022/05/31 13:25:19;;;;;;;4.63;1.88;;;21.60;63.20;;;;;;5063320;28;20029;-40
2022/05/31 13:27:59;;;;;;;2.92;1.52;;;21.60;63.30;;;;;;5061619;28;20744;-40
2022/05/31 13:30:27;;;;;;;2.65;1.58;;;21.60;63.20;;;;;;5081092;28;20051;-40
2022/05/31 13:32:53;;;;;;;4.10;1.63;;;21.60;63.20;;;;;;5063397;28;20059;-39
2022/05/31 13:35:24;;;;;;;2.47;1.60;;;21.60;63.20;;;;;;5063005;28;20084;-41
2022/05/31 13:38:03;;;;;;;3.45;1.60;;;21.60;63.30;;;;;;5045871;28;20029;-39
2022/05/31 13:40:35;;;;;;;3.75;1.95;;;21.60;63.30;;;;;;5062764;28;20060;-41
2022/05/31 13:43:03;;;;;;;4.82;1.55;;;21.60;63.30;;;;;;5063221;28;20036;-42
2022/05/31 13:45:30;;;;;;;2.30;1.70;;;21.60;63.30;;;;;;5045581;28;20513;-40
2022/05/31 13:47:58;;;;;;;2.13;1.55;;;21.60;63.30;;;;;;5073028;28;20052;-42
2022/05/31 13:50:33;;;;;;;4.50;1.70;;;21.60;63.40;;;;;;5046875;28;20096;-39